sensor_id;sensor_type;location;lat;lon;timestamp;P1;durP1;ratioP1;P2;durP2;ratioP2
9836;SDS011;4957;51.412;6.724;2023-05-10T00:01:47;9.43;;;7.53;;
9836;SDS011;4957;51.412;6.724;2023-05-10T00:04:13;13.70;;;8.43;;
9836;SDS011;4957;51.412;6.724;2023-05-10T00:06:38;13.07;;;9.67;;
9836;SDS011;4957;51.412;6.724;2023-05-10T00:09:04;12.53;;;8.90;;
9836;SDS011;4957;51.412;6.724;2023-05-10T00:11:30;9.93;;;7.90;;
9836;SDS011;4957;51.412;6.724;2023-05-10T00:13:56;10.37;;;8.90;;
9836;SDS011;4957;51.412;6.724;2023-05-10T00:16:21;10.30;;;7.77;;
9836;SDS011;4957;51.412;6.724;2023-05-10T00:18:47;10.97;;;7.83;;
9836;SDS011;4957;51.412;6.724;2023-05-10T00:21:13;12.33;;;8.57;;
9836;SDS011;4957;51.412;6.724;2023-05-10T00:23:38;8.73;;;7.43;;
9836;SDS011;4957;51.412;6.724;2023-05-10T00:26:04;10.10;;;6.57;;
9836;SDS011;4957;51.412;6.724;2023-05-10T00:28:30;7.50;;;6.33;;
9836;SDS011;4957;51.412;6.724;2023-05-10T00:30:55;9.23;;;6.90;;
9836;SDS011;4957;51.412;6.724;2023-05-10T00:33:21;9.53;;;7.47;;
9836;SDS011;4957;51.412;6.724;2023-05-10T00:35:47;8.37;;;6.20;;
9836;SDS011;4957;51.412;6.724;2023-05-10T00:38:13;7.80;;;6.40;;
9836;SDS011;4957;51.412;6.724;2023-05-10T00:40:39;7.67;;;6.17;;
9836;SDS011;4957;51.412;6.724;2023-05-10T00:43:05;7.83;;;6.77;;
9836;SDS011;4957;51.412;6.724;2023-05-10T00:45:32;8.40;;;6.37;;
9836;SDS011;4957;51.412;6.724;2023-05-10T00:48:03;13.73;;;8.30;;
9836;SDS011;4957;51.412;6.724;2023-05-10T00:50:30;10.93;;;7.77;;
9836;SDS011;4957;51.412;6.724;2023-05-10T00:52:57;14.20;;;8.37;;
9836;SDS011;4957;51.412;6.724;2023-05-10T00:55:25;12.13;;;8.23;;
9836;SDS011;4957;51.412;6.724;2023-05-10T00:57:51;15.53;;;7.63;;
9836;SDS011;4957;51.412;6.724;2023-05-10T01:00:18;16.63;;;8.53;;
9836;SDS011;4957;51.412;6.724;2023-05-10T01:02:44;14.57;;;9.30;;
9836;SDS011;4957;51.412;6.724;2023-05-10T01:05:11;10.77;;;8.33;;
9836;SDS011;4957;51.412;6.724;2023-05-10T01:07:38;13.10;;;8.77;;
9836;SDS011;4957;51.412;6.724;2023-05-10T01:10:05;12.37;;;9.40;;
9836;SDS011;4957;51.412;6.724;2023-05-10T01:12:31;12.73;;;9.10;;
9836;SDS011;4957;51.412;6.724;2023-05-10T01:14:59;12.37;;;9.17;;
9836;SDS011;4957;51.412;6.724;2023-05-10T01:17:26;13.47;;;9.60;;
9836;SDS011;4957;51.412;6.724;2023-05-10T01:19:51;13.53;;;10.07;;
9836;SDS011;4957;51.412;6.724;2023-05-10T01:28:15;12.30;;;9.77;;
9836;SDS011;4957;51.412;6.724;2023-05-10T01:33:58;12.43;;;9.17;;
9836;SDS011;4957;51.412;6.724;2023-05-10T01:36:35;14.47;;;10.00;;
9836;SDS011;4957;51.412;6.724;2023-05-10T01:41:55;12.07;;;9.13;;
9836;SDS011;4957;51.412;6.724;2023-05-10T01:44:34;12.33;;;9.50;;
9836;SDS011;4957;51.412;6.724;2023-05-10T01:49:45;11.83;;;8.43;;
9836;SDS011;4957;51.412;6.724;2023-05-10T01:52:16;12.73;;;9.83;;
9836;SDS011;4957;51.412;6.724;2023-05-10T01:54:48;16.00;;;10.03;;
9836;SDS011;4957;51.412;6.724;2023-05-10T01:57:19;13.93;;;10.27;;
9836;SDS011;4957;51.412;6.724;2023-05-10T01:59:49;17.23;;;11.40;;
9836;SDS011;4957;51.412;6.724;2023-05-10T02:02:15;16.27;;;11.67;;
9836;SDS011;4957;51.412;6.724;2023-05-10T02:04:45;15.60;;;10.77;;
9836;SDS011;4957;51.412;6.724;2023-05-10T02:07:12;14.77;;;11.20;;
9836;SDS011;4957;51.412;6.724;2023-05-10T02:09:39;13.80;;;10.53;;
9836;SDS011;4957;51.412;6.724;2023-05-10T02:12:08;14.87;;;10.70;;
9836;SDS011;4957;51.412;6.724;2023-05-10T02:14:36;16.07;;;10.10;;
9836;SDS011;4957;51.412;6.724;2023-05-10T02:17:04;16.60;;;10.50;;
9836;SDS011;4957;51.412;6.724;2023-05-10T02:19:31;16.00;;;11.00;;
9836;SDS011;4957;51.412;6.724;2023-05-10T02:21:59;17.47;;;10.80;;
9836;SDS011;4957;51.412;6.724;2023-05-10T02:24:25;16.27;;;10.73;;
9836;SDS011;4957;51.412;6.724;2023-05-10T02:26:53;16.20;;;10.53;;
9836;SDS011;4957;51.412;6.724;2023-05-10T02:29:21;15.83;;;9.23;;
9836;SDS011;4957;51.412;6.724;2023-05-10T02:31:50;16.33;;;10.17;;
9836;SDS011;4957;51.412;6.724;2023-05-10T02:34:19;15.87;;;10.10;;
9836;SDS011;4957;51.412;6.724;2023-05-10T02:36:47;15.93;;;11.03;;
9836;SDS011;4957;51.412;6.724;2023-05-10T02:39:13;17.13;;;11.03;;
9836;SDS011;4957;51.412;6.724;2023-05-10T02:41:40;15.60;;;9.43;;
9836;SDS011;4957;51.412;6.724;2023-05-10T02:44:08;17.77;;;11.53;;
9836;SDS011;4957;51.412;6.724;2023-05-10T02:46:35;21.93;;;11.70;;
9836;SDS011;4957;51.412;6.724;2023-05-10T02:49:02;18.63;;;11.03;;
9836;SDS011;4957;51.412;6.724;2023-05-10T02:51:30;20.27;;;11.60;;
9836;SDS011;4957;51.412;6.724;2023-05-10T02:54:00;19.80;;;11.23;;
9836;SDS011;4957;51.412;6.724;2023-05-10T02:56:32;16.67;;;10.93;;
9836;SDS011;4957;51.412;6.724;2023-05-10T02:59:00;15.03;;;10.57;;
9836;SDS011;4957;51.412;6.724;2023-05-10T03:01:26;18.73;;;10.87;;
9836;SDS011;4957;51.412;6.724;2023-05-10T03:03:52;16.27;;;9.87;;
9836;SDS011;4957;51.412;6.724;2023-05-10T03:06:17;16.60;;;9.87;;
9836;SDS011;4957;51.412;6.724;2023-05-10T03:08:43;14.10;;;9.40;;
9836;SDS011;4957;51.412;6.724;2023-05-10T03:11:18;17.77;;;10.10;;
9836;SDS011;4957;51.412;6.724;2023-05-10T03:16:42;17.20;;;10.07;;
9836;SDS011;4957;51.412;6.724;2023-05-10T03:22:06;17.87;;;9.73;;
9836;SDS011;4957;51.412;6.724;2023-05-10T03:24:35;15.70;;;9.77;;
9836;SDS011;4957;51.412;6.724;2023-05-10T03:27:04;17.77;;;10.43;;
9836;SDS011;4957;51.412;6.724;2023-05-10T03:29:31;22.00;;;10.53;;
9836;SDS011;4957;51.412;6.724;2023-05-10T03:31:58;17.23;;;10.40;;
9836;SDS011;4957;51.412;6.724;2023-05-10T03:34:25;18.80;;;11.23;;
9836;SDS011;4957;51.412;6.724;2023-05-10T03:36:51;20.80;;;11.47;;
9836;SDS011;4957;51.412;6.724;2023-05-10T03:39:17;23.50;;;11.37;;
9836;SDS011;4957;51.412;6.724;2023-05-10T03:41:42;20.87;;;11.40;;
9836;SDS011;4957;51.412;6.724;2023-05-10T03:44:08;20.07;;;10.53;;
9836;SDS011;4957;51.412;6.724;2023-05-10T03:46:34;23.40;;;11.07;;
9836;SDS011;4957;51.412;6.724;2023-05-10T03:48:59;21.07;;;11.33;;
9836;SDS011;4957;51.412;6.724;2023-05-10T03:51:25;24.50;;;11.80;;
9836;SDS011;4957;51.412;6.724;2023-05-10T03:53:53;27.20;;;11.30;;
9836;SDS011;4957;51.412;6.724;2023-05-10T03:56:19;21.47;;;11.90;;
9836;SDS011;4957;51.412;6.724;2023-05-10T03:58:45;23.23;;;11.70;;
9836;SDS011;4957;51.412;6.724;2023-05-10T04:01:11;24.90;;;12.60;;
9836;SDS011;4957;51.412;6.724;2023-05-10T04:03:37;26.53;;;13.17;;
9836;SDS011;4957;51.412;6.724;2023-05-10T04:06:03;25.03;;;12.50;;
9836;SDS011;4957;51.412;6.724;2023-05-10T04:08:29;27.50;;;12.87;;
9836;SDS011;4957;51.412;6.724;2023-05-10T04:11:04;23.47;;;13.20;;
9836;SDS011;4957;51.412;6.724;2023-05-10T04:13:33;27.97;;;13.97;;
9836;SDS011;4957;51.412;6.724;2023-05-10T04:15:59;24.97;;;13.40;;
9836;SDS011;4957;51.412;6.724;2023-05-10T04:18:25;27.47;;;14.37;;
9836;SDS011;4957;51.412;6.724;2023-05-10T04:20:51;24.00;;;14.07;;
9836;SDS011;4957;51.412;6.724;2023-05-10T04:23:17;25.10;;;13.80;;
9836;SDS011;4957;51.412;6.724;2023-05-10T04:25:42;33.20;;;15.87;;
9836;SDS011;4957;51.412;6.724;2023-05-10T04:28:08;29.63;;;15.10;;
9836;SDS011;4957;51.412;6.724;2023-05-10T04:30:34;23.77;;;13.80;;
9836;SDS011;4957;51.412;6.724;2023-05-10T04:33:00;30.80;;;15.83;;
9836;SDS011;4957;51.412;6.724;2023-05-10T04:35:29;27.03;;;14.97;;
9836;SDS011;4957;51.412;6.724;2023-05-10T04:37:54;27.47;;;14.47;;
9836;SDS011;4957;51.412;6.724;2023-05-10T04:40:21;26.77;;;15.23;;
9836;SDS011;4957;51.412;6.724;2023-05-10T04:42:46;29.83;;;16.27;;
9836;SDS011;4957;51.412;6.724;2023-05-10T04:45:12;31.57;;;15.50;;
9836;SDS011;4957;51.412;6.724;2023-05-10T04:47:39;32.50;;;15.67;;
9836;SDS011;4957;51.412;6.724;2023-05-10T04:50:05;32.77;;;17.23;;
9836;SDS011;4957;51.412;6.724;2023-05-10T04:52:32;30.07;;;17.33;;
9836;SDS011;4957;51.412;6.724;2023-05-10T04:54:57;28.10;;;16.77;;
9836;SDS011;4957;51.412;6.724;2023-05-10T04:57:23;31.47;;;16.17;;
9836;SDS011;4957;51.412;6.724;2023-05-10T04:59:49;32.43;;;17.87;;
9836;SDS011;4957;51.412;6.724;2023-05-10T05:02:14;35.07;;;17.57;;
9836;SDS011;4957;51.412;6.724;2023-05-10T05:04:40;30.57;;;16.73;;
9836;SDS011;4957;51.412;6.724;2023-05-10T05:07:06;30.07;;;18.30;;
9836;SDS011;4957;51.412;6.724;2023-05-10T05:09:31;30.87;;;16.70;;
9836;SDS011;4957;51.412;6.724;2023-05-10T05:11:57;31.83;;;16.93;;
9836;SDS011;4957;51.412;6.724;2023-05-10T05:14:23;35.67;;;18.57;;
9836;SDS011;4957;51.412;6.724;2023-05-10T05:16:52;32.00;;;17.57;;
9836;SDS011;4957;51.412;6.724;2023-05-10T05:19:18;34.90;;;17.13;;
9836;SDS011;4957;51.412;6.724;2023-05-10T05:21:43;34.07;;;17.33;;
9836;SDS011;4957;51.412;6.724;2023-05-10T05:24:09;36.30;;;16.90;;
9836;SDS011;4957;51.412;6.724;2023-05-10T05:26:36;31.03;;;18.33;;
9836;SDS011;4957;51.412;6.724;2023-05-10T05:29:01;32.13;;;18.23;;
9836;SDS011;4957;51.412;6.724;2023-05-10T05:31:28;32.43;;;18.13;;
9836;SDS011;4957;51.412;6.724;2023-05-10T05:33:54;30.37;;;17.33;;
9836;SDS011;4957;51.412;6.724;2023-05-10T05:36:20;32.60;;;18.67;;
9836;SDS011;4957;51.412;6.724;2023-05-10T05:38:46;31.63;;;18.20;;
9836;SDS011;4957;51.412;6.724;2023-05-10T05:41:12;34.70;;;18.20;;
9836;SDS011;4957;51.412;6.724;2023-05-10T05:43:38;32.07;;;18.37;;
9836;SDS011;4957;51.412;6.724;2023-05-10T05:46:04;32.67;;;17.43;;
9836;SDS011;4957;51.412;6.724;2023-05-10T05:48:30;35.43;;;19.43;;
9836;SDS011;4957;51.412;6.724;2023-05-10T05:50:56;34.03;;;18.70;;
9836;SDS011;4957;51.412;6.724;2023-05-10T05:53:22;39.63;;;19.33;;
9836;SDS011;4957;51.412;6.724;2023-05-10T05:55:55;36.10;;;19.47;;
9836;SDS011;4957;51.412;6.724;2023-05-10T05:58:23;37.37;;;18.77;;
9836;SDS011;4957;51.412;6.724;2023-05-10T06:00:49;39.47;;;19.43;;
9836;SDS011;4957;51.412;6.724;2023-05-10T06:03:17;43.90;;;21.53;;
9836;SDS011;4957;51.412;6.724;2023-05-10T06:05:43;37.87;;;19.80;;
9836;SDS011;4957;51.412;6.724;2023-05-10T06:08:09;40.97;;;21.27;;
9836;SDS011;4957;51.412;6.724;2023-05-10T06:10:35;40.83;;;20.17;;
9836;SDS011;4957;51.412;6.724;2023-05-10T06:13:01;49.97;;;23.43;;
9836;SDS011;4957;51.412;6.724;2023-05-10T06:15:27;47.73;;;21.97;;
9836;SDS011;4957;51.412;6.724;2023-05-10T06:17:53;54.53;;;24.40;;
9836;SDS011;4957;51.412;6.724;2023-05-10T06:20:18;47.27;;;22.90;;
9836;SDS011;4957;51.412;6.724;2023-05-10T06:22:44;51.87;;;24.07;;
9836;SDS011;4957;51.412;6.724;2023-05-10T06:25:10;53.33;;;23.23;;
9836;SDS011;4957;51.412;6.724;2023-05-10T06:27:36;46.70;;;20.73;;
9836;SDS011;4957;51.412;6.724;2023-05-10T06:30:02;58.17;;;24.40;;
9836;SDS011;4957;51.412;6.724;2023-05-10T06:32:28;55.43;;;24.90;;
9836;SDS011;4957;51.412;6.724;2023-05-10T06:34:54;55.33;;;24.30;;
9836;SDS011;4957;51.412;6.724;2023-05-10T06:37:20;49.97;;;22.97;;
9836;SDS011;4957;51.412;6.724;2023-05-10T06:39:45;52.47;;;22.80;;
9836;SDS011;4957;51.412;6.724;2023-05-10T06:42:11;49.13;;;21.40;;
9836;SDS011;4957;51.412;6.724;2023-05-10T06:44:37;50.53;;;23.40;;
9836;SDS011;4957;51.412;6.724;2023-05-10T06:47:02;50.80;;;23.53;;
9836;SDS011;4957;51.412;6.724;2023-05-10T06:49:28;53.80;;;22.83;;
9836;SDS011;4957;51.412;6.724;2023-05-10T06:51:55;46.87;;;21.57;;
9836;SDS011;4957;51.412;6.724;2023-05-10T06:54:21;48.33;;;21.20;;
9836;SDS011;4957;51.412;6.724;2023-05-10T06:56:46;55.57;;;23.03;;
9836;SDS011;4957;51.412;6.724;2023-05-10T06:59:12;55.77;;;24.10;;
9836;SDS011;4957;51.412;6.724;2023-05-10T07:01:38;50.90;;;22.73;;
9836;SDS011;4957;51.412;6.724;2023-05-10T07:04:04;55.77;;;24.00;;
9836;SDS011;4957;51.412;6.724;2023-05-10T07:06:30;54.43;;;23.43;;
9836;SDS011;4957;51.412;6.724;2023-05-10T07:08:56;50.03;;;23.23;;
9836;SDS011;4957;51.412;6.724;2023-05-10T07:11:22;49.63;;;20.90;;
9836;SDS011;4957;51.412;6.724;2023-05-10T07:13:47;55.33;;;22.70;;
9836;SDS011;4957;51.412;6.724;2023-05-10T07:16:13;49.00;;;21.57;;
9836;SDS011;4957;51.412;6.724;2023-05-10T07:18:39;49.73;;;21.00;;
9836;SDS011;4957;51.412;6.724;2023-05-10T07:21:04;43.03;;;20.60;;
9836;SDS011;4957;51.412;6.724;2023-05-10T07:23:30;37.67;;;17.10;;
9836;SDS011;4957;51.412;6.724;2023-05-10T07:25:56;45.63;;;20.60;;
9836;SDS011;4957;51.412;6.724;2023-05-10T07:28:23;44.43;;;19.87;;
9836;SDS011;4957;51.412;6.724;2023-05-10T07:30:51;50.03;;;21.07;;
9836;SDS011;4957;51.412;6.724;2023-05-10T07:33:17;45.10;;;21.40;;
9836;SDS011;4957;51.412;6.724;2023-05-10T07:35:43;48.30;;;21.57;;
9836;SDS011;4957;51.412;6.724;2023-05-10T07:38:08;51.60;;;21.67;;
9836;SDS011;4957;51.412;6.724;2023-05-10T07:40:36;47.37;;;20.37;;
9836;SDS011;4957;51.412;6.724;2023-05-10T07:43:01;48.03;;;21.90;;
9836;SDS011;4957;51.412;6.724;2023-05-10T07:45:27;51.73;;;21.43;;
9836;SDS011;4957;51.412;6.724;2023-05-10T07:47:53;47.23;;;21.57;;
9836;SDS011;4957;51.412;6.724;2023-05-10T07:50:19;50.07;;;21.90;;
9836;SDS011;4957;51.412;6.724;2023-05-10T07:52:46;44.83;;;19.90;;
9836;SDS011;4957;51.412;6.724;2023-05-10T07:55:12;46.10;;;20.70;;
9836;SDS011;4957;51.412;6.724;2023-05-10T07:57:38;50.23;;;21.80;;
9836;SDS011;4957;51.412;6.724;2023-05-10T08:00:04;53.67;;;22.57;;
9836;SDS011;4957;51.412;6.724;2023-05-10T08:02:31;61.13;;;24.17;;
9836;SDS011;4957;51.412;6.724;2023-05-10T08:04:58;63.87;;;24.90;;
9836;SDS011;4957;51.412;6.724;2023-05-10T08:07:24;70.90;;;27.47;;
9836;SDS011;4957;51.412;6.724;2023-05-10T08:09:50;65.50;;;26.17;;
9836;SDS011;4957;51.412;6.724;2023-05-10T08:12:16;57.20;;;22.97;;
9836;SDS011;4957;51.412;6.724;2023-05-10T08:14:41;54.40;;;23.97;;
9836;SDS011;4957;51.412;6.724;2023-05-10T08:17:07;55.43;;;23.77;;
9836;SDS011;4957;51.412;6.724;2023-05-10T08:19:33;52.93;;;22.27;;
9836;SDS011;4957;51.412;6.724;2023-05-10T08:21:58;45.60;;;22.40;;
9836;SDS011;4957;51.412;6.724;2023-05-10T08:24:24;50.23;;;21.70;;
9836;SDS011;4957;51.412;6.724;2023-05-10T08:26:50;40.73;;;18.83;;
9836;SDS011;4957;51.412;6.724;2023-05-10T08:29:16;39.47;;;20.03;;
9836;SDS011;4957;51.412;6.724;2023-05-10T08:31:41;37.60;;;18.90;;
9836;SDS011;4957;51.412;6.724;2023-05-10T08:34:07;42.53;;;20.17;;
9836;SDS011;4957;51.412;6.724;2023-05-10T08:36:33;40.00;;;20.77;;
9836;SDS011;4957;51.412;6.724;2023-05-10T08:38:58;41.27;;;21.10;;
9836;SDS011;4957;51.412;6.724;2023-05-10T08:41:25;38.07;;;18.93;;
9836;SDS011;4957;51.412;6.724;2023-05-10T08:43:51;36.40;;;19.70;;
9836;SDS011;4957;51.412;6.724;2023-05-10T08:46:18;34.47;;;19.80;;
9836;SDS011;4957;51.412;6.724;2023-05-10T08:48:45;37.13;;;19.40;;
9836;SDS011;4957;51.412;6.724;2023-05-10T08:51:13;31.63;;;17.57;;
9836;SDS011;4957;51.412;6.724;2023-05-10T08:53:40;33.47;;;17.93;;
9836;SDS011;4957;51.412;6.724;2023-05-10T08:56:06;34.73;;;18.80;;
9836;SDS011;4957;51.412;6.724;2023-05-10T08:58:32;39.43;;;19.47;;
9836;SDS011;4957;51.412;6.724;2023-05-10T09:00:58;28.67;;;17.47;;
9836;SDS011;4957;51.412;6.724;2023-05-10T09:03:25;25.50;;;15.27;;
9836;SDS011;4957;51.412;6.724;2023-05-10T09:05:51;29.40;;;15.23;;
9836;SDS011;4957;51.412;6.724;2023-05-10T09:08:17;27.43;;;15.27;;
9836;SDS011;4957;51.412;6.724;2023-05-10T09:10:43;27.63;;;14.90;;
9836;SDS011;4957;51.412;6.724;2023-05-10T09:13:12;27.47;;;15.73;;
9836;SDS011;4957;51.412;6.724;2023-05-10T09:15:40;26.30;;;15.13;;
9836;SDS011;4957;51.412;6.724;2023-05-10T09:18:05;25.30;;;15.17;;
9836;SDS011;4957;51.412;6.724;2023-05-10T09:20:31;24.67;;;14.73;;
9836;SDS011;4957;51.412;6.724;2023-05-10T09:22:57;25.00;;;16.17;;
9836;SDS011;4957;51.412;6.724;2023-05-10T09:25:23;22.43;;;14.40;;
9836;SDS011;4957;51.412;6.724;2023-05-10T09:27:48;20.90;;;14.17;;
9836;SDS011;4957;51.412;6.724;2023-05-10T09:30:15;20.70;;;14.23;;
9836;SDS011;4957;51.412;6.724;2023-05-10T09:32:43;24.00;;;14.43;;
9836;SDS011;4957;51.412;6.724;2023-05-10T09:35:11;19.97;;;13.30;;
9836;SDS011;4957;51.412;6.724;2023-05-10T09:37:42;17.63;;;11.97;;
9836;SDS011;4957;51.412;6.724;2023-05-10T09:40:19;18.30;;;12.33;;
9836;SDS011;4957;51.412;6.724;2023-05-10T09:42:53;18.20;;;12.50;;
9836;SDS011;4957;51.412;6.724;2023-05-10T09:45:26;21.70;;;12.90;;
9836;SDS011;4957;51.412;6.724;2023-05-10T09:47:53;19.10;;;13.07;;
9836;SDS011;4957;51.412;6.724;2023-05-10T09:50:19;20.97;;;13.00;;
9836;SDS011;4957;51.412;6.724;2023-05-10T09:52:55;18.90;;;12.63;;
9836;SDS011;4957;51.412;6.724;2023-05-10T09:55:26;19.47;;;13.63;;
9836;SDS011;4957;51.412;6.724;2023-05-10T09:58:01;19.03;;;12.53;;
9836;SDS011;4957;51.412;6.724;2023-05-10T10:00:27;18.13;;;12.80;;
9836;SDS011;4957;51.412;6.724;2023-05-10T10:02:59;19.67;;;12.90;;
9836;SDS011;4957;51.412;6.724;2023-05-10T10:05:30;19.90;;;13.10;;
9836;SDS011;4957;51.412;6.724;2023-05-10T10:07:57;17.73;;;12.40;;
9836;SDS011;4957;51.412;6.724;2023-05-10T10:10:26;18.47;;;12.10;;
9836;SDS011;4957;51.412;6.724;2023-05-10T10:12:53;18.97;;;12.23;;
9836;SDS011;4957;51.412;6.724;2023-05-10T10:15:20;18.10;;;12.30;;
9836;SDS011;4957;51.412;6.724;2023-05-10T10:17:46;18.53;;;11.80;;
9836;SDS011;4957;51.412;6.724;2023-05-10T10:20:14;19.13;;;12.70;;
9836;SDS011;4957;51.412;6.724;2023-05-10T10:22:40;22.07;;;12.80;;
9836;SDS011;4957;51.412;6.724;2023-05-10T10:25:07;24.10;;;12.63;;
9836;SDS011;4957;51.412;6.724;2023-05-10T10:33:28;19.87;;;13.57;;
9836;SDS011;4957;51.412;6.724;2023-05-10T10:36:09;21.13;;;13.37;;
9836;SDS011;4957;51.412;6.724;2023-05-10T10:38:37;18.50;;;13.47;;
9836;SDS011;4957;51.412;6.724;2023-05-10T10:41:28;18.53;;;12.97;;
9836;SDS011;4957;51.412;6.724;2023-05-10T10:47:21;21.00;;;12.83;;
9836;SDS011;4957;51.412;6.724;2023-05-10T10:52:14;21.03;;;14.00;;
9836;SDS011;4957;51.412;6.724;2023-05-10T10:54:49;18.50;;;13.07;;
9836;SDS011;4957;51.412;6.724;2023-05-10T10:57:23;16.53;;;12.10;;
9836;SDS011;4957;51.412;6.724;2023-05-10T10:59:51;19.00;;;12.97;;
9836;SDS011;4957;51.412;6.724;2023-05-10T11:05:25;20.73;;;13.87;;
9836;SDS011;4957;51.412;6.724;2023-05-10T11:08:06;17.27;;;11.97;;
9836;SDS011;4957;51.412;6.724;2023-05-10T11:10:34;17.70;;;11.33;;
9836;SDS011;4957;51.412;6.724;2023-05-10T11:13:00;13.40;;;10.60;;
9836;SDS011;4957;51.412;6.724;2023-05-10T11:15:37;14.20;;;9.27;;
9836;SDS011;4957;51.412;6.724;2023-05-10T11:18:20;17.10;;;9.90;;
9836;SDS011;4957;51.412;6.724;2023-05-10T11:20:58;12.37;;;9.47;;
9836;SDS011;4957;51.412;6.724;2023-05-10T11:26:09;13.33;;;8.80;;
9836;SDS011;4957;51.412;6.724;2023-05-10T11:29:09;14.33;;;8.07;;
9836;SDS011;4957;51.412;6.724;2023-05-10T11:31:29;12.20;;;8.30;;
9836;SDS011;4957;51.412;6.724;2023-05-10T11:33:56;13.00;;;8.53;;
9836;SDS011;4957;51.412;6.724;2023-05-10T11:36:24;16.73;;;9.07;;
9836;SDS011;4957;51.412;6.724;2023-05-10T11:38:51;8.70;;;7.23;;
9836;SDS011;4957;51.412;6.724;2023-05-10T11:41:18;9.30;;;6.80;;
9836;SDS011;4957;51.412;6.724;2023-05-10T11:43:51;11.43;;;7.07;;
9836;SDS011;4957;51.412;6.724;2023-05-10T11:46:19;8.57;;;6.63;;
9836;SDS011;4957;51.412;6.724;2023-05-10T11:48:45;9.00;;;6.33;;
9836;SDS011;4957;51.412;6.724;2023-05-10T11:51:21;9.53;;;5.90;;
9836;SDS011;4957;51.412;6.724;2023-05-10T11:53:49;7.60;;;6.50;;
9836;SDS011;4957;51.412;6.724;2023-05-10T11:56:16;9.73;;;5.90;;
9836;SDS011;4957;51.412;6.724;2023-05-10T11:58:42;7.40;;;5.90;;
9836;SDS011;4957;51.412;6.724;2023-05-10T12:01:07;8.37;;;5.63;;
9836;SDS011;4957;51.412;6.724;2023-05-10T12:03:35;8.17;;;5.57;;
9836;SDS011;4957;51.412;6.724;2023-05-10T12:06:01;8.97;;;5.30;;
9836;SDS011;4957;51.412;6.724;2023-05-10T12:08:28;8.43;;;5.60;;
9836;SDS011;4957;51.412;6.724;2023-05-10T12:11:08;6.70;;;5.93;;
9836;SDS011;4957;51.412;6.724;2023-05-10T12:13:38;6.83;;;5.10;;
9836;SDS011;4957;51.412;6.724;2023-05-10T12:16:12;9.57;;;5.23;;
9836;SDS011;4957;51.412;6.724;2023-05-10T12:18:48;8.33;;;6.00;;
9836;SDS011;4957;51.412;6.724;2023-05-10T12:21:18;8.43;;;6.03;;
9836;SDS011;4957;51.412;6.724;2023-05-10T12:23:46;10.07;;;6.30;;
9836;SDS011;4957;51.412;6.724;2023-05-10T12:26:13;11.23;;;7.20;;
9836;SDS011;4957;51.412;6.724;2023-05-10T12:28:39;10.07;;;6.33;;
9836;SDS011;4957;51.412;6.724;2023-05-10T12:31:05;7.73;;;5.93;;
9836;SDS011;4957;51.412;6.724;2023-05-10T12:33:35;8.93;;;6.90;;
9836;SDS011;4957;51.412;6.724;2023-05-10T12:36:09;9.00;;;6.70;;
9836;SDS011;4957;51.412;6.724;2023-05-10T12:38:39;7.33;;;5.73;;
9836;SDS011;4957;51.412;6.724;2023-05-10T12:41:10;8.13;;;5.77;;
9836;SDS011;4957;51.412;6.724;2023-05-10T12:43:37;9.50;;;6.17;;
9836;SDS011;4957;51.412;6.724;2023-05-10T12:46:04;7.37;;;5.83;;
9836;SDS011;4957;51.412;6.724;2023-05-10T12:48:31;6.67;;;5.50;;
9836;SDS011;4957;51.412;6.724;2023-05-10T12:50:58;8.57;;;6.10;;
9836;SDS011;4957;51.412;6.724;2023-05-10T12:53:25;6.93;;;6.00;;
9836;SDS011;4957;51.412;6.724;2023-05-10T12:55:51;8.83;;;6.33;;
9836;SDS011;4957;51.412;6.724;2023-05-10T12:58:16;9.90;;;6.63;;
9836;SDS011;4957;51.412;6.724;2023-05-10T13:00:42;10.73;;;6.60;;
9836;SDS011;4957;51.412;6.724;2023-05-10T13:03:08;6.97;;;5.97;;
9836;SDS011;4957;51.412;6.724;2023-05-10T13:05:35;6.97;;;5.30;;
9836;SDS011;4957;51.412;6.724;2023-05-10T13:08:01;8.57;;;5.37;;
9836;SDS011;4957;51.412;6.724;2023-05-10T13:10:28;9.63;;;5.43;;
9836;SDS011;4957;51.412;6.724;2023-05-10T13:12:55;7.00;;;5.17;;
9836;SDS011;4957;51.412;6.724;2023-05-10T13:15:21;6.07;;;5.40;;
9836;SDS011;4957;51.412;6.724;2023-05-10T13:17:47;7.47;;;5.70;;
9836;SDS011;4957;51.412;6.724;2023-05-10T13:20:13;7.00;;;4.73;;
9836;SDS011;4957;51.412;6.724;2023-05-10T13:22:39;6.87;;;5.10;;
9836;SDS011;4957;51.412;6.724;2023-05-10T13:25:06;5.30;;;4.47;;
9836;SDS011;4957;51.412;6.724;2023-05-10T13:27:32;8.10;;;5.87;;
9836;SDS011;4957;51.412;6.724;2023-05-10T13:29:57;7.83;;;5.73;;
9836;SDS011;4957;51.412;6.724;2023-05-10T13:32:24;9.60;;;5.50;;
9836;SDS011;4957;51.412;6.724;2023-05-10T13:34:50;8.90;;;6.10;;
9836;SDS011;4957;51.412;6.724;2023-05-10T13:37:16;7.90;;;6.67;;
9836;SDS011;4957;51.412;6.724;2023-05-10T13:39:42;8.07;;;4.57;;
9836;SDS011;4957;51.412;6.724;2023-05-10T13:42:08;8.57;;;5.67;;
9836;SDS011;4957;51.412;6.724;2023-05-10T13:44:33;7.60;;;6.40;;
9836;SDS011;4957;51.412;6.724;2023-05-10T13:46:59;8.93;;;7.30;;
9836;SDS011;4957;51.412;6.724;2023-05-10T13:49:25;10.57;;;7.57;;
9836;SDS011;4957;51.412;6.724;2023-05-10T13:51:50;9.27;;;7.67;;
9836;SDS011;4957;51.412;6.724;2023-05-10T13:54:17;10.20;;;7.57;;
9836;SDS011;4957;51.412;6.724;2023-05-10T13:56:44;9.23;;;6.77;;
9836;SDS011;4957;51.412;6.724;2023-05-10T13:59:12;8.40;;;6.63;;
9836;SDS011;4957;51.412;6.724;2023-05-10T14:01:39;7.17;;;5.77;;
9836;SDS011;4957;51.412;6.724;2023-05-10T14:04:10;7.83;;;6.47;;
9836;SDS011;4957;51.412;6.724;2023-05-10T14:06:36;7.03;;;5.50;;
9836;SDS011;4957;51.412;6.724;2023-05-10T14:09:02;7.80;;;6.20;;
9836;SDS011;4957;51.412;6.724;2023-05-10T14:11:28;10.63;;;6.93;;
9836;SDS011;4957;51.412;6.724;2023-05-10T14:13:54;9.10;;;8.13;;
9836;SDS011;4957;51.412;6.724;2023-05-10T14:16:19;9.53;;;7.80;;
9836;SDS011;4957;51.412;6.724;2023-05-10T14:18:46;10.37;;;7.33;;
9836;SDS011;4957;51.412;6.724;2023-05-10T14:21:11;9.47;;;7.33;;
9836;SDS011;4957;51.412;6.724;2023-05-10T14:23:38;9.23;;;6.93;;
9836;SDS011;4957;51.412;6.724;2023-05-10T14:26:03;15.40;;;8.70;;
9836;SDS011;4957;51.412;6.724;2023-05-10T14:28:29;12.23;;;9.07;;
9836;SDS011;4957;51.412;6.724;2023-05-10T14:30:55;11.67;;;8.83;;
9836;SDS011;4957;51.412;6.724;2023-05-10T14:33:20;10.97;;;8.27;;
9836;SDS011;4957;51.412;6.724;2023-05-10T14:35:46;12.03;;;9.13;;
9836;SDS011;4957;51.412;6.724;2023-05-10T14:38:12;11.77;;;9.80;;
9836;SDS011;4957;51.412;6.724;2023-05-10T14:40:39;12.67;;;9.83;;
9836;SDS011;4957;51.412;6.724;2023-05-10T14:43:04;10.93;;;9.70;;
9836;SDS011;4957;51.412;6.724;2023-05-10T14:45:30;12.37;;;9.73;;
9836;SDS011;4957;51.412;6.724;2023-05-10T14:47:56;16.20;;;12.33;;
9836;SDS011;4957;51.412;6.724;2023-05-10T14:50:22;12.63;;;10.73;;
9836;SDS011;4957;51.412;6.724;2023-05-10T14:52:48;19.13;;;12.73;;
9836;SDS011;4957;51.412;6.724;2023-05-10T14:55:15;17.13;;;12.47;;
9836;SDS011;4957;51.412;6.724;2023-05-10T14:57:40;17.93;;;13.53;;
9836;SDS011;4957;51.412;6.724;2023-05-10T15:00:06;17.87;;;13.10;;
9836;SDS011;4957;51.412;6.724;2023-05-10T15:02:33;17.20;;;12.07;;
9836;SDS011;4957;51.412;6.724;2023-05-10T15:04:59;16.67;;;12.90;;
9836;SDS011;4957;51.412;6.724;2023-05-10T15:07:24;17.87;;;11.90;;
9836;SDS011;4957;51.412;6.724;2023-05-10T15:09:50;15.40;;;11.47;;
9836;SDS011;4957;51.412;6.724;2023-05-10T15:12:17;14.57;;;11.73;;
9836;SDS011;4957;51.412;6.724;2023-05-10T15:14:43;13.70;;;10.87;;
9836;SDS011;4957;51.412;6.724;2023-05-10T15:17:09;16.00;;;10.27;;
9836;SDS011;4957;51.412;6.724;2023-05-10T15:19:35;9.23;;;8.17;;
9836;SDS011;4957;51.412;6.724;2023-05-10T15:22:01;10.30;;;7.20;;
9836;SDS011;4957;51.412;6.724;2023-05-10T15:24:28;5.87;;;4.07;;
9836;SDS011;4957;51.412;6.724;2023-05-10T15:26:54;3.73;;;2.43;;
9836;SDS011;4957;51.412;6.724;2023-05-10T15:29:20;3.00;;;2.20;;
9836;SDS011;4957;51.412;6.724;2023-05-10T15:31:51;2.57;;;2.37;;
9836;SDS011;4957;51.412;6.724;2023-05-10T15:34:17;2.70;;;2.40;;